sensor_id;sensor_type;location;lat;lon;timestamp;P1;durP1;ratioP1;P2;durP2;ratioP2
54177;SDS011;40085;53.004;6.770;2023-02-07T00:01:24;8.75;;;3.70;;
54177;SDS011;40085;53.004;6.770;2023-02-07T00:03:50;10.30;;;4.05;;
54177;SDS011;40085;53.004;6.770;2023-02-07T00:06:21;14.75;;;4.25;;
54177;SDS011;40085;53.004;6.770;2023-02-07T00:08:58;11.50;;;3.33;;
54177;SDS011;40085;53.004;6.770;2023-02-07T00:11:24;10.32;;;3.92;;
54177;SDS011;40085;53.004;6.770;2023-02-07T00:13:52;12.00;;;4.22;;
54177;SDS011;40085;53.004;6.770;2023-02-07T00:16:19;12.27;;;4.78;;
54177;SDS011;40085;53.004;6.770;2023-02-07T00:18:52;7.72;;;3.83;;
54177;SDS011;40085;53.004;6.770;2023-02-07T00:21:19;14.32;;;5.63;;
54177;SDS011;40085;53.004;6.770;2023-02-07T00:23:47;11.02;;;4.47;;
54177;SDS011;40085;53.004;6.770;2023-02-07T00:26:13;6.20;;;3.33;;
54177;SDS011;40085;53.004;6.770;2023-02-07T00:28:40;8.63;;;4.30;;
54177;SDS011;40085;53.004;6.770;2023-02-07T00:31:07;13.20;;;5.35;;
54177;SDS011;40085;53.004;6.770;2023-02-07T00:33:38;7.43;;;4.47;;
54177;SDS011;40085;53.004;6.770;2023-02-07T00:36:06;12.07;;;4.72;;
54177;SDS011;40085;53.004;6.770;2023-02-07T00:38:33;15.25;;;4.93;;
54177;SDS011;40085;53.004;6.770;2023-02-07T00:40:59;12.30;;;4.60;;
54177;SDS011;40085;53.004;6.770;2023-02-07T00:43:28;12.48;;;5.38;;
54177;SDS011;40085;53.004;6.770;2023-02-07T00:45:54;13.50;;;5.15;;
54177;SDS011;40085;53.004;6.770;2023-02-07T00:48:21;10.30;;;4.60;;
54177;SDS011;40085;53.004;6.770;2023-02-07T00:50:46;11.93;;;5.10;;
54177;SDS011;40085;53.004;6.770;2023-02-07T00:53:12;11.63;;;4.85;;
54177;SDS011;40085;53.004;6.770;2023-02-07T00:55:38;7.75;;;4.20;;
54177;SDS011;40085;53.004;6.770;2023-02-07T00:58:03;8.65;;;4.63;;
54177;SDS011;40085;53.004;6.770;2023-02-07T01:00:29;11.65;;;5.82;;
54177;SDS011;40085;53.004;6.770;2023-02-07T01:02:55;12.88;;;5.50;;
54177;SDS011;40085;53.004;6.770;2023-02-07T01:05:20;12.10;;;4.18;;
54177;SDS011;40085;53.004;6.770;2023-02-07T01:07:46;10.10;;;5.53;;
54177;SDS011;40085;53.004;6.770;2023-02-07T01:10:11;14.73;;;5.22;;
54177;SDS011;40085;53.004;6.770;2023-02-07T01:12:37;13.60;;;5.68;;
54177;SDS011;40085;53.004;6.770;2023-02-07T01:15:03;11.02;;;5.43;;
54177;SDS011;40085;53.004;6.770;2023-02-07T01:17:31;15.77;;;4.82;;
54177;SDS011;40085;53.004;6.770;2023-02-07T01:19:57;11.57;;;5.72;;
54177;SDS011;40085;53.004;6.770;2023-02-07T01:22:23;12.35;;;5.22;;
54177;SDS011;40085;53.004;6.770;2023-02-07T01:24:51;15.75;;;4.95;;
54177;SDS011;40085;53.004;6.770;2023-02-07T01:27:19;10.13;;;4.90;;
54177;SDS011;40085;53.004;6.770;2023-02-07T01:29:45;17.95;;;5.15;;
54177;SDS011;40085;53.004;6.770;2023-02-07T01:32:10;13.48;;;4.32;;
54177;SDS011;40085;53.004;6.770;2023-02-07T01:34:36;13.25;;;4.75;;
54177;SDS011;40085;53.004;6.770;2023-02-07T01:37:02;11.68;;;4.97;;
54177;SDS011;40085;53.004;6.770;2023-02-07T01:39:27;10.23;;;4.95;;
54177;SDS011;40085;53.004;6.770;2023-02-07T01:41:53;11.95;;;4.90;;
54177;SDS011;40085;53.004;6.770;2023-02-07T01:46:47;14.20;;;5.35;;
54177;SDS011;40085;53.004;6.770;2023-02-07T01:49:15;11.43;;;4.90;;
54177;SDS011;40085;53.004;6.770;2023-02-07T01:51:46;12.60;;;5.45;;
54177;SDS011;40085;53.004;6.770;2023-02-07T01:54:17;10.68;;;5.22;;
54177;SDS011;40085;53.004;6.770;2023-02-07T01:56:45;8.40;;;4.47;;
54177;SDS011;40085;53.004;6.770;2023-02-07T01:59:15;14.95;;;4.85;;
54177;SDS011;40085;53.004;6.770;2023-02-07T02:01:41;12.38;;;4.25;;
54177;SDS011;40085;53.004;6.770;2023-02-07T02:04:08;14.43;;;4.28;;
54177;SDS011;40085;53.004;6.770;2023-02-07T02:06:33;8.88;;;4.93;;
54177;SDS011;40085;53.004;6.770;2023-02-07T02:09:00;10.68;;;4.63;;
54177;SDS011;40085;53.004;6.770;2023-02-07T02:11:39;12.50;;;5.57;;
54177;SDS011;40085;53.004;6.770;2023-02-07T02:25:17;11.10;;;4.57;;
54177;SDS011;40085;53.004;6.770;2023-02-07T02:28:20;15.02;;;6.10;;
54177;SDS011;40085;53.004;6.770;2023-02-07T02:34:08;12.43;;;5.80;;
54177;SDS011;40085;53.004;6.770;2023-02-07T02:39:40;17.88;;;5.40;;
54177;SDS011;40085;53.004;6.770;2023-02-07T02:42:27;18.33;;;5.43;;
54177;SDS011;40085;53.004;6.770;2023-02-07T02:45:02;14.38;;;5.75;;
54177;SDS011;40085;53.004;6.770;2023-02-07T02:47:36;9.75;;;4.60;;
54177;SDS011;40085;53.004;6.770;2023-02-07T02:50:09;11.35;;;4.93;;
54177;SDS011;40085;53.004;6.770;2023-02-07T02:52:37;11.63;;;5.05;;
54177;SDS011;40085;53.004;6.770;2023-02-07T02:55:03;10.13;;;4.53;;
54177;SDS011;40085;53.004;6.770;2023-02-07T02:57:33;15.82;;;5.22;;
54177;SDS011;40085;53.004;6.770;2023-02-07T03:08:53;11.10;;;5.25;;
54177;SDS011;40085;53.004;6.770;2023-02-07T03:11:36;13.63;;;5.45;;
54177;SDS011;40085;53.004;6.770;2023-02-07T03:16:49;11.95;;;5.18;;
54177;SDS011;40085;53.004;6.770;2023-02-07T03:19:38;12.43;;;5.15;;
54177;SDS011;40085;53.004;6.770;2023-02-07T03:22:12;13.27;;;5.90;;
54177;SDS011;40085;53.004;6.770;2023-02-07T03:24:41;12.32;;;4.95;;
54177;SDS011;40085;53.004;6.770;2023-02-07T03:27:10;12.40;;;5.28;;
54177;SDS011;40085;53.004;6.770;2023-02-07T03:29:39;13.50;;;5.13;;
54177;SDS011;40085;53.004;6.770;2023-02-07T03:32:09;14.70;;;5.33;;
54177;SDS011;40085;53.004;6.770;2023-02-07T03:34:44;12.70;;;4.75;;
54177;SDS011;40085;53.004;6.770;2023-02-07T03:37:18;15.02;;;5.32;;
54177;SDS011;40085;53.004;6.770;2023-02-07T03:39:50;14.77;;;4.60;;
54177;SDS011;40085;53.004;6.770;2023-02-07T03:42:39;12.20;;;5.40;;
54177;SDS011;40085;53.004;6.770;2023-02-07T03:45:09;11.38;;;5.13;;
54177;SDS011;40085;53.004;6.770;2023-02-07T03:47:39;13.63;;;4.90;;
54177;SDS011;40085;53.004;6.770;2023-02-07T03:50:05;11.73;;;5.15;;
54177;SDS011;40085;53.004;6.770;2023-02-07T03:52:31;11.95;;;5.28;;
54177;SDS011;40085;53.004;6.770;2023-02-07T03:54:56;12.93;;;5.47;;
54177;SDS011;40085;53.004;6.770;2023-02-07T03:57:22;19.00;;;6.07;;
54177;SDS011;40085;53.004;6.770;2023-02-07T03:59:47;22.65;;;6.57;;
54177;SDS011;40085;53.004;6.770;2023-02-07T04:02:13;19.15;;;6.18;;
54177;SDS011;40085;53.004;6.770;2023-02-07T04:04:39;11.38;;;4.93;;
54177;SDS011;40085;53.004;6.770;2023-02-07T04:07:04;9.88;;;4.45;;
54177;SDS011;40085;53.004;6.770;2023-02-07T04:09:31;9.75;;;5.10;;
54177;SDS011;40085;53.004;6.770;2023-02-07T04:11:57;20.65;;;6.10;;
54177;SDS011;40085;53.004;6.770;2023-02-07T04:14:22;7.80;;;4.60;;
54177;SDS011;40085;53.004;6.770;2023-02-07T04:16:48;16.35;;;6.03;;
54177;SDS011;40085;53.004;6.770;2023-02-07T04:19:14;7.63;;;4.20;;
54177;SDS011;40085;53.004;6.770;2023-02-07T04:21:40;12.13;;;5.10;;
54177;SDS011;40085;53.004;6.770;2023-02-07T04:24:06;11.35;;;5.40;;
54177;SDS011;40085;53.004;6.770;2023-02-07T04:26:32;18.85;;;4.88;;
54177;SDS011;40085;53.004;6.770;2023-02-07T04:28:57;15.85;;;5.45;;
54177;SDS011;40085;53.004;6.770;2023-02-07T04:31:23;13.10;;;5.18;;
54177;SDS011;40085;53.004;6.770;2023-02-07T04:33:49;9.65;;;4.82;;
54177;SDS011;40085;53.004;6.770;2023-02-07T04:36:14;13.75;;;5.25;;
54177;SDS011;40085;53.004;6.770;2023-02-07T04:38:40;14.18;;;5.38;;
54177;SDS011;40085;53.004;6.770;2023-02-07T04:41:06;17.75;;;6.05;;
54177;SDS011;40085;53.004;6.770;2023-02-07T04:43:33;13.27;;;4.47;;
54177;SDS011;40085;53.004;6.770;2023-02-07T04:46:00;12.68;;;5.72;;
54177;SDS011;40085;53.004;6.770;2023-02-07T04:48:26;10.35;;;4.53;;
54177;SDS011;40085;53.004;6.770;2023-02-07T04:50:52;11.82;;;4.90;;
54177;SDS011;40085;53.004;6.770;2023-02-07T04:53:18;13.43;;;4.45;;
54177;SDS011;40085;53.004;6.770;2023-02-07T04:55:47;10.13;;;4.88;;
54177;SDS011;40085;53.004;6.770;2023-02-07T04:58:16;15.38;;;4.28;;
54177;SDS011;40085;53.004;6.770;2023-02-07T05:00:43;9.52;;;4.90;;
54177;SDS011;40085;53.004;6.770;2023-02-07T05:03:09;11.55;;;5.03;;
54177;SDS011;40085;53.004;6.770;2023-02-07T05:05:38;11.32;;;4.93;;
54177;SDS011;40085;53.004;6.770;2023-02-07T05:08:05;16.42;;;5.65;;
54177;SDS011;40085;53.004;6.770;2023-02-07T05:10:31;13.90;;;5.65;;
54177;SDS011;40085;53.004;6.770;2023-02-07T05:12:56;10.65;;;4.50;;
54177;SDS011;40085;53.004;6.770;2023-02-07T05:15:22;8.80;;;4.85;;
54177;SDS011;40085;53.004;6.770;2023-02-07T05:17:48;14.23;;;4.82;;
54177;SDS011;40085;53.004;6.770;2023-02-07T05:20:14;9.63;;;4.93;;
54177;SDS011;40085;53.004;6.770;2023-02-07T05:22:39;10.70;;;4.88;;
54177;SDS011;40085;53.004;6.770;2023-02-07T05:25:05;15.68;;;5.25;;
54177;SDS011;40085;53.004;6.770;2023-02-07T05:27:31;9.18;;;4.70;;
54177;SDS011;40085;53.004;6.770;2023-02-07T05:29:56;10.55;;;4.57;;
54177;SDS011;40085;53.004;6.770;2023-02-07T05:32:23;14.00;;;5.55;;
54177;SDS011;40085;53.004;6.770;2023-02-07T05:35:07;11.38;;;5.65;;
54177;SDS011;40085;53.004;6.770;2023-02-07T05:37:33;9.52;;;5.40;;
54177;SDS011;40085;53.004;6.770;2023-02-07T05:39:59;12.75;;;4.85;;
54177;SDS011;40085;53.004;6.770;2023-02-07T05:42:24;12.63;;;5.25;;
54177;SDS011;40085;53.004;6.770;2023-02-07T05:44:50;13.50;;;5.00;;
54177;SDS011;40085;53.004;6.770;2023-02-07T05:47:16;9.30;;;5.07;;
54177;SDS011;40085;53.004;6.770;2023-02-07T05:49:41;10.20;;;4.85;;
54177;SDS011;40085;53.004;6.770;2023-02-07T05:52:07;9.95;;;5.72;;
54177;SDS011;40085;53.004;6.770;2023-02-07T05:54:33;16.60;;;6.35;;
54177;SDS011;40085;53.004;6.770;2023-02-07T05:56:58;12.52;;;6.22;;
54177;SDS011;40085;53.004;6.770;2023-02-07T05:59:24;6.60;;;4.47;;
54177;SDS011;40085;53.004;6.770;2023-02-07T06:01:50;9.50;;;4.32;;
54177;SDS011;40085;53.004;6.770;2023-02-07T06:04:15;12.65;;;5.97;;
54177;SDS011;40085;53.004;6.770;2023-02-07T06:06:41;11.70;;;6.13;;
54177;SDS011;40085;53.004;6.770;2023-02-07T06:09:06;10.88;;;5.07;;
54177;SDS011;40085;53.004;6.770;2023-02-07T06:11:32;9.90;;;5.00;;
54177;SDS011;40085;53.004;6.770;2023-02-07T06:13:58;15.45;;;5.63;;
54177;SDS011;40085;53.004;6.770;2023-02-07T06:16:23;11.43;;;5.28;;
54177;SDS011;40085;53.004;6.770;2023-02-07T06:18:49;16.55;;;5.35;;
54177;SDS011;40085;53.004;6.770;2023-02-07T06:21:15;19.17;;;6.10;;
54177;SDS011;40085;53.004;6.770;2023-02-07T06:23:41;12.10;;;4.60;;
54177;SDS011;40085;53.004;6.770;2023-02-07T06:26:06;10.85;;;4.88;;
54177;SDS011;40085;53.004;6.770;2023-02-07T06:28:32;14.25;;;6.00;;
54177;SDS011;40085;53.004;6.770;2023-02-07T06:30:58;10.88;;;5.32;;
54177;SDS011;40085;53.004;6.770;2023-02-07T06:33:23;11.35;;;5.22;;
54177;SDS011;40085;53.004;6.770;2023-02-07T06:35:49;13.98;;;5.47;;
54177;SDS011;40085;53.004;6.770;2023-02-07T06:38:16;12.55;;;5.85;;
54177;SDS011;40085;53.004;6.770;2023-02-07T06:40:42;17.90;;;7.40;;
54177;SDS011;40085;53.004;6.770;2023-02-07T06:43:09;22.33;;;8.57;;
54177;SDS011;40085;53.004;6.770;2023-02-07T06:45:35;13.93;;;6.72;;
54177;SDS011;40085;53.004;6.770;2023-02-07T06:48:01;15.55;;;6.03;;
54177;SDS011;40085;53.004;6.770;2023-02-07T06:50:27;13.30;;;6.40;;
54177;SDS011;40085;53.004;6.770;2023-02-07T06:52:53;14.00;;;6.05;;
54177;SDS011;40085;53.004;6.770;2023-02-07T06:55:19;10.95;;;5.32;;
54177;SDS011;40085;53.004;6.770;2023-02-07T06:57:44;10.63;;;6.15;;
54177;SDS011;40085;53.004;6.770;2023-02-07T07:00:10;12.43;;;6.22;;
54177;SDS011;40085;53.004;6.770;2023-02-07T07:02:36;9.73;;;5.45;;
54177;SDS011;40085;53.004;6.770;2023-02-07T07:05:02;12.52;;;5.75;;
54177;SDS011;40085;53.004;6.770;2023-02-07T07:07:28;13.63;;;5.40;;
54177;SDS011;40085;53.004;6.770;2023-02-07T07:09:53;11.65;;;6.07;;
54177;SDS011;40085;53.004;6.770;2023-02-07T07:12:19;22.15;;;6.15;;
54177;SDS011;40085;53.004;6.770;2023-02-07T07:14:45;12.95;;;6.55;;
54177;SDS011;40085;53.004;6.770;2023-02-07T07:17:10;10.02;;;5.32;;
54177;SDS011;40085;53.004;6.770;2023-02-07T07:19:36;8.90;;;5.38;;
54177;SDS011;40085;53.004;6.770;2023-02-07T07:22:02;13.60;;;5.93;;
54177;SDS011;40085;53.004;6.770;2023-02-07T07:24:27;13.82;;;5.53;;
54177;SDS011;40085;53.004;6.770;2023-02-07T07:26:53;11.75;;;6.05;;
54177;SDS011;40085;53.004;6.770;2023-02-07T07:29:20;11.85;;;5.07;;
54177;SDS011;40085;53.004;6.770;2023-02-07T07:31:46;14.90;;;5.95;;
54177;SDS011;40085;53.004;6.770;2023-02-07T07:34:11;11.10;;;5.82;;
54177;SDS011;40085;53.004;6.770;2023-02-07T07:36:37;20.90;;;6.88;;
54177;SDS011;40085;53.004;6.770;2023-02-07T07:39:03;13.80;;;6.68;;
54177;SDS011;40085;53.004;6.770;2023-02-07T07:41:29;11.85;;;6.15;;
54177;SDS011;40085;53.004;6.770;2023-02-07T07:43:55;13.55;;;5.90;;
54177;SDS011;40085;53.004;6.770;2023-02-07T07:46:20;16.60;;;6.60;;
54177;SDS011;40085;53.004;6.770;2023-02-07T07:48:46;12.82;;;5.97;;
54177;SDS011;40085;53.004;6.770;2023-02-07T07:51:12;17.40;;;6.15;;
54177;SDS011;40085;53.004;6.770;2023-02-07T07:53:37;11.88;;;6.25;;
54177;SDS011;40085;53.004;6.770;2023-02-07T07:56:03;11.45;;;6.22;;
54177;SDS011;40085;53.004;6.770;2023-02-07T07:58:29;11.02;;;5.20;;
54177;SDS011;40085;53.004;6.770;2023-02-07T08:00:55;18.35;;;6.15;;
54177;SDS011;40085;53.004;6.770;2023-02-07T08:03:21;13.15;;;7.28;;
54177;SDS011;40085;53.004;6.770;2023-02-07T08:05:47;9.50;;;5.55;;
54177;SDS011;40085;53.004;6.770;2023-02-07T08:08:14;13.82;;;6.15;;
54177;SDS011;40085;53.004;6.770;2023-02-07T08:10:41;12.55;;;6.55;;
54177;SDS011;40085;53.004;6.770;2023-02-07T08:13:06;11.75;;;5.60;;
54177;SDS011;40085;53.004;6.770;2023-02-07T08:15:32;10.52;;;6.68;;
54177;SDS011;40085;53.004;6.770;2023-02-07T08:17:58;13.43;;;5.85;;
54177;SDS011;40085;53.004;6.770;2023-02-07T08:20:23;15.95;;;6.70;;
54177;SDS011;40085;53.004;6.770;2023-02-07T08:22:49;11.25;;;5.55;;
54177;SDS011;40085;53.004;6.770;2023-02-07T08:25:15;12.45;;;6.03;;
54177;SDS011;40085;53.004;6.770;2023-02-07T08:27:41;11.82;;;6.47;;
54177;SDS011;40085;53.004;6.770;2023-02-07T08:30:07;13.90;;;6.50;;
54177;SDS011;40085;53.004;6.770;2023-02-07T08:32:33;11.63;;;6.10;;
54177;SDS011;40085;53.004;6.770;2023-02-07T08:34:59;11.35;;;6.45;;
54177;SDS011;40085;53.004;6.770;2023-02-07T08:37:24;10.25;;;6.50;;
54177;SDS011;40085;53.004;6.770;2023-02-07T08:39:50;12.77;;;6.20;;
54177;SDS011;40085;53.004;6.770;2023-02-07T08:42:17;15.40;;;7.15;;
54177;SDS011;40085;53.004;6.770;2023-02-07T08:44:45;11.10;;;6.70;;
54177;SDS011;40085;53.004;6.770;2023-02-07T08:47:11;13.68;;;6.63;;
54177;SDS011;40085;53.004;6.770;2023-02-07T08:49:37;10.45;;;5.78;;
54177;SDS011;40085;53.004;6.770;2023-02-07T08:52:03;10.40;;;5.55;;
54177;SDS011;40085;53.004;6.770;2023-02-07T08:54:29;14.23;;;6.53;;
54177;SDS011;40085;53.004;6.770;2023-02-07T08:56:55;11.30;;;5.93;;
54177;SDS011;40085;53.004;6.770;2023-02-07T08:59:20;12.10;;;5.93;;
54177;SDS011;40085;53.004;6.770;2023-02-07T09:01:46;12.55;;;6.18;;
54177;SDS011;40085;53.004;6.770;2023-02-07T09:04:11;16.23;;;6.68;;
54177;SDS011;40085;53.004;6.770;2023-02-07T09:06:37;15.18;;;6.97;;
54177;SDS011;40085;53.004;6.770;2023-02-07T09:09:03;13.75;;;6.82;;
54177;SDS011;40085;53.004;6.770;2023-02-07T09:11:29;12.18;;;6.70;;
54177;SDS011;40085;53.004;6.770;2023-02-07T09:13:55;13.05;;;6.13;;
54177;SDS011;40085;53.004;6.770;2023-02-07T09:16:20;9.65;;;6.00;;
54177;SDS011;40085;53.004;6.770;2023-02-07T09:18:47;13.50;;;6.90;;
54177;SDS011;40085;53.004;6.770;2023-02-07T09:21:13;13.45;;;6.22;;
54177;SDS011;40085;53.004;6.770;2023-02-07T09:23:39;10.73;;;5.50;;
54177;SDS011;40085;53.004;6.770;2023-02-07T09:26:05;14.48;;;6.18;;
54177;SDS011;40085;53.004;6.770;2023-02-07T09:28:32;12.18;;;5.50;;
54177;SDS011;40085;53.004;6.770;2023-02-07T09:30:58;8.48;;;4.78;;
54177;SDS011;40085;53.004;6.770;2023-02-07T09:33:24;9.70;;;5.00;;
54177;SDS011;40085;53.004;6.770;2023-02-07T09:35:49;9.40;;;5.32;;
54177;SDS011;40085;53.004;6.770;2023-02-07T09:38:16;10.30;;;4.80;;
54177;SDS011;40085;53.004;6.770;2023-02-07T09:40:45;11.90;;;5.68;;
54177;SDS011;40085;53.004;6.770;2023-02-07T09:43:17;13.20;;;5.95;;
54177;SDS011;40085;53.004;6.770;2023-02-07T09:46:29;11.43;;;4.75;;
54177;SDS011;40085;53.004;6.770;2023-02-07T09:49:13;5.28;;;3.83;;
54177;SDS011;40085;53.004;6.770;2023-02-07T09:51:51;12.15;;;4.63;;
54177;SDS011;40085;53.004;6.770;2023-02-07T09:54:21;12.13;;;4.85;;
54177;SDS011;40085;53.004;6.770;2023-02-07T09:56:54;9.70;;;4.90;;
54177;SDS011;40085;53.004;6.770;2023-02-07T09:59:25;7.88;;;5.25;;
54177;SDS011;40085;53.004;6.770;2023-02-07T10:02:16;10.02;;;5.15;;
54177;SDS011;40085;53.004;6.770;2023-02-07T10:04:54;6.03;;;4.10;;
54177;SDS011;40085;53.004;6.770;2023-02-07T10:07:26;8.38;;;5.20;;
54177;SDS011;40085;53.004;6.770;2023-02-07T10:09:51;9.88;;;5.47;;
54177;SDS011;40085;53.004;6.770;2023-02-07T10:13:20;15.13;;;5.22;;
54177;SDS011;40085;53.004;6.770;2023-02-07T10:18:14;9.68;;;5.32;;
54177;SDS011;40085;53.004;6.770;2023-02-07T10:26:34;9.25;;;4.43;;
54177;SDS011;40085;53.004;6.770;2023-02-07T10:31:37;10.98;;;4.95;;
54177;SDS011;40085;53.004;6.770;2023-02-07T10:34:14;11.88;;;5.47;;
54177;SDS011;40085;53.004;6.770;2023-02-07T10:36:46;9.93;;;5.97;;
54177;SDS011;40085;53.004;6.770;2023-02-07T10:39:18;8.70;;;5.28;;
54177;SDS011;40085;53.004;6.770;2023-02-07T10:42:04;11.55;;;5.88;;
54177;SDS011;40085;53.004;6.770;2023-02-07T10:44:29;15.13;;;5.75;;
54177;SDS011;40085;53.004;6.770;2023-02-07T10:46:59;8.20;;;4.53;;
54177;SDS011;40085;53.004;6.770;2023-02-07T10:49:31;9.00;;;5.00;;
54177;SDS011;40085;53.004;6.770;2023-02-07T10:52:00;11.43;;;5.30;;
54177;SDS011;40085;53.004;6.770;2023-02-07T10:54:50;6.93;;;4.75;;
54177;SDS011;40085;53.004;6.770;2023-02-07T10:57:18;10.05;;;5.30;;
54177;SDS011;40085;53.004;6.770;2023-02-07T10:59:45;7.53;;;4.50;;
54177;SDS011;40085;53.004;6.770;2023-02-07T11:04:52;11.48;;;4.85;;
54177;SDS011;40085;53.004;6.770;2023-02-07T11:07:19;7.90;;;5.03;;
54177;SDS011;40085;53.004;6.770;2023-02-07T11:09:45;8.80;;;5.07;;
54177;SDS011;40085;53.004;6.770;2023-02-07T11:12:16;11.88;;;4.97;;
54177;SDS011;40085;53.004;6.770;2023-02-07T11:15:04;9.70;;;5.18;;
54177;SDS011;40085;53.004;6.770;2023-02-07T11:17:32;9.85;;;5.38;;
54177;SDS011;40085;53.004;6.770;2023-02-07T11:20:05;9.32;;;4.85;;
54177;SDS011;40085;53.004;6.770;2023-02-07T11:22:31;12.52;;;4.35;;
54177;SDS011;40085;53.004;6.770;2023-02-07T11:25:03;7.68;;;4.93;;
54177;SDS011;40085;53.004;6.770;2023-02-07T11:27:35;10.18;;;5.10;;
54177;SDS011;40085;53.004;6.770;2023-02-07T11:30:14;11.73;;;4.82;;
54177;SDS011;40085;53.004;6.770;2023-02-07T11:32:41;9.98;;;4.30;;
54177;SDS011;40085;53.004;6.770;2023-02-07T11:35:08;7.00;;;4.50;;
54177;SDS011;40085;53.004;6.770;2023-02-07T11:37:46;11.95;;;4.30;;
54177;SDS011;40085;53.004;6.770;2023-02-07T11:40:29;12.52;;;4.90;;
54177;SDS011;40085;53.004;6.770;2023-02-07T11:43:11;12.13;;;5.32;;
54177;SDS011;40085;53.004;6.770;2023-02-07T11:45:38;8.18;;;4.80;;
54177;SDS011;40085;53.004;6.770;2023-02-07T11:48:06;11.38;;;5.25;;
54177;SDS011;40085;53.004;6.770;2023-02-07T11:50:39;6.05;;;3.88;;
54177;SDS011;40085;53.004;6.770;2023-02-07T11:53:22;9.88;;;5.45;;
54177;SDS011;40085;53.004;6.770;2023-02-07T11:56:06;7.32;;;4.20;;
54177;SDS011;40085;53.004;6.770;2023-02-07T11:58:44;8.45;;;4.25;;
54177;SDS011;40085;53.004;6.770;2023-02-07T12:01:12;9.98;;;4.22;;
54177;SDS011;40085;53.004;6.770;2023-02-07T12:03:47;8.50;;;4.82;;
54177;SDS011;40085;53.004;6.770;2023-02-07T12:06:25;9.90;;;4.75;;
54177;SDS011;40085;53.004;6.770;2023-02-07T12:08:59;7.97;;;4.65;;
54177;SDS011;40085;53.004;6.770;2023-02-07T12:11:27;9.25;;;5.18;;
54177;SDS011;40085;53.004;6.770;2023-02-07T12:14:11;5.57;;;4.25;;
54177;SDS011;40085;53.004;6.770;2023-02-07T12:16:51;14.38;;;5.00;;
54177;SDS011;40085;53.004;6.770;2023-02-07T12:19:30;12.63;;;4.55;;
54177;SDS011;40085;53.004;6.770;2023-02-07T12:24:52;11.13;;;4.57;;
54177;SDS011;40085;53.004;6.770;2023-02-07T12:27:41;10.70;;;4.38;;
54177;SDS011;40085;53.004;6.770;2023-02-07T12:35:41;11.10;;;3.70;;
54177;SDS011;40085;53.004;6.770;2023-02-07T12:40:50;9.75;;;4.03;;
54177;SDS011;40085;53.004;6.770;2023-02-07T12:43:20;8.10;;;4.10;;
54177;SDS011;40085;53.004;6.770;2023-02-07T12:54:01;6.75;;;4.45;;
54177;SDS011;40085;53.004;6.770;2023-02-07T13:13:14;8.07;;;4.93;;
54177;SDS011;40085;53.004;6.770;2023-02-07T13:18:38;8.13;;;4.00;;
54177;SDS011;40085;53.004;6.770;2023-02-07T13:21:18;9.23;;;3.55;;
54177;SDS011;40085;53.004;6.770;2023-02-07T13:23:59;7.82;;;3.97;;
54177;SDS011;40085;53.004;6.770;2023-02-07T13:26:28;10.77;;;4.50;;
54177;SDS011;40085;53.004;6.770;2023-02-07T13:29:00;6.60;;;4.07;;
54177;SDS011;40085;53.004;6.770;2023-02-07T13:31:40;10.10;;;4.45;;
54177;SDS011;40085;53.004;6.770;2023-02-07T13:36:56;8.32;;;4.72;;
54177;SDS011;40085;53.004;6.770;2023-02-07T13:42:12;9.15;;;4.38;;
54177;SDS011;40085;53.004;6.770;2023-02-07T13:44:50;8.73;;;4.00;;
54177;SDS011;40085;53.004;6.770;2023-02-07T13:47:44;7.35;;;3.88;;
54177;SDS011;40085;53.004;6.770;2023-02-07T13:56:11;7.18;;;4.55;;
54177;SDS011;40085;53.004;6.770;2023-02-07T13:58:57;9.90;;;4.65;;
54177;SDS011;40085;53.004;6.770;2023-02-07T14:01:49;8.65;;;4.22;;
54177;SDS011;40085;53.004;6.770;2023-02-07T14:04:17;10.77;;;4.40;;
54177;SDS011;40085;53.004;6.770;2023-02-07T14:09:22;6.72;;;3.72;;
54177;SDS011;40085;53.004;6.770;2023-02-07T14:12:04;11.80;;;4.25;;
54177;SDS011;40085;53.004;6.770;2023-02-07T14:14:36;9.45;;;3.88;;
54177;SDS011;40085;53.004;6.770;2023-02-07T14:17:06;6.03;;;3.53;;
54177;SDS011;40085;53.004;6.770;2023-02-07T14:22:20;6.47;;;4.30;;
54177;SDS011;40085;53.004;6.770;2023-02-07T14:27:27;9.75;;;4.47;;
54177;SDS011;40085;53.004;6.770;2023-02-07T14:32:26;10.43;;;4.72;;
54177;SDS011;40085;53.004;6.770;2023-02-07T14:35:03;12.00;;;4.43;;
54177;SDS011;40085;53.004;6.770;2023-02-07T14:40:19;10.75;;;4.32;;
54177;SDS011;40085;53.004;6.770;2023-02-07T14:45:36;6.70;;;3.78;;
54177;SDS011;40085;53.004;6.770;2023-02-07T14:51:00;5.57;;;2.92;;
54177;SDS011;40085;53.004;6.770;2023-02-07T14:53:26;9.65;;;4.63;;
54177;SDS011;40085;53.004;6.770;2023-02-07T14:55:57;7.22;;;3.55;;
54177;SDS011;40085;53.004;6.770;2023-02-07T14:58:31;7.00;;;3.75;;
54177;SDS011;40085;53.004;6.770;2023-02-07T15:01:02;7.50;;;4.05;;
54177;SDS011;40085;53.004;6.770;2023-02-07T15:03:41;11.63;;;4.65;;
54177;SDS011;40085;53.004;6.770;2023-02-07T15:06:17;8.40;;;3.90;;
54177;SDS011;40085;53.004;6.770;2023-02-07T15:08:54;11.38;;;4.65;;
54177;SDS011;40085;53.004;6.770;2023-02-07T15:11:21;8.18;;;4.45;;
54177;SDS011;40085;53.004;6.770;2023-02-07T15:13:50;9.38;;;4.30;;
54177;SDS011;40085;53.004;6.770;2023-02-07T15:16:19;7.82;;;4.50;;
54177;SDS011;40085;53.004;6.770;2023-02-07T15:21:56;9.27;;;5.28;;
54177;SDS011;40085;53.004;6.770;2023-02-07T15:26:54;8.73;;;4.00;;
54177;SDS011;40085;53.004;6.770;2023-02-07T15:29:23;8.73;;;4.13;;
54177;SDS011;40085;53.004;6.770;2023-02-07T15:31:51;12.30;;;4.63;;
54177;SDS011;40085;53.004;6.770;2023-02-07T15:34:18;8.90;;;3.92;;
54177;SDS011;40085;53.004;6.770;2023-02-07T15:36:47;9.80;;;4.07;;
54177;SDS011;40085;53.004;6.770;2023-02-07T15:39:15;9.55;;;3.90;;
54177;SDS011;40085;53.004;6.770;2023-02-07T15:41:48;9.07;;;4.25;;
54177;SDS011;40085;53.004;6.770;2023-02-07T15:44:26;7.15;;;3.65;;
54177;SDS011;40085;53.004;6.770;2023-02-07T15:46:57;7.32;;;3.72;;
54177;SDS011;40085;53.004;6.770;2023-02-07T15:49:34;7.00;;;4.30;;
54177;SDS011;40085;53.004;6.770;2023-02-07T15:54:59;7.47;;;4.13;;
54177;SDS011;40085;53.004;6.770;2023-02-07T15:57:28;9.18;;;4.43;;
54177;SDS011;40085;53.004;6.770;2023-02-07T16:00:03;11.13;;;5.15;;
54177;SDS011;40085;53.004;6.770;2023-02-07T16:02:35;5.10;;;3.67;;
54177;SDS011;40085;53.004;6.770;2023-02-07T16:05:08;7.00;;;3.88;;
54177;SDS011;40085;53.004;6.770;2023-02-07T16:07:36;8.10;;;4.18;;
54177;SDS011;40085;53.004;6.770;2023-02-07T16:12:51;8.82;;;4.18;;
54177;SDS011;40085;53.004;6.770;2023-02-07T16:15:31;11.13;;;4.03;;
54177;SDS011;40085;53.004;6.770;2023-02-07T16:17:59;9.85;;;3.70;;
54177;SDS011;40085;53.004;6.770;2023-02-07T16:20:26;15.43;;;4.75;;
54177;SDS011;40085;53.004;6.770;2023-02-07T16:22:54;7.38;;;3.92;;
54177;SDS011;40085;53.004;6.770;2023-02-07T16:25:25;10.63;;;3.92;;
54177;SDS011;40085;53.004;6.770;2023-02-07T16:27:54;11.35;;;4.05;;
54177;SDS011;40085;53.004;6.770;2023-02-07T16:30:22;7.53;;;3.47;;
54177;SDS011;40085;53.004;6.770;2023-02-07T16:32:51;10.45;;;4.38;;
54177;SDS011;40085;53.004;6.770;2023-02-07T16:35:19;10.77;;;4.40;;
54177;SDS011;40085;53.004;6.770;2023-02-07T16:37:46;11.23;;;4.25;;
54177;SDS011;40085;53.004;6.770;2023-02-07T16:40:12;11.55;;;4.72;;
54177;SDS011;40085;53.004;6.770;2023-02-07T16:42:38;9.00;;;3.72;;
54177;SDS011;40085;53.004;6.770;2023-02-07T16:45:06;9.60;;;4.32;;
54177;SDS011;40085;53.004;6.770;2023-02-07T16:47:39;10.55;;;4.22;;
54177;SDS011;40085;53.004;6.770;2023-02-07T16:50:07;12.38;;;4.35;;
54177;SDS011;40085;53.004;6.770;2023-02-07T16:52:42;9.88;;;4.15;;
54177;SDS011;40085;53.004;6.770;2023-02-07T16:55:08;10.73;;;4.85;;
54177;SDS011;40085;53.004;6.770;2023-02-07T16:57:35;11.55;;;4.72;;